Time;durP1;ratioP1;P1;durP2;ratioP2;P2;SDS_P1;SDS_P2;PMS_P1;PMS_P2;Temp;Humidity;BMP_temperature;BMP_pressure;BME280_temperature;BME280_humidity;BME280_pressure;Samples;Min_cycle;Max_cycle;Signal;HPM_P1;HPM_P2
2021/04/09 00:01:41;;;;;;;34.10;7.88;;;6.70;99.90;;;;;;5016429;28;20104;-65
2021/04/09 00:04:07;;;;;;;35.10;7.13;;;6.70;99.90;;;;;;5016970;28;20120;-65
2021/04/09 00:06:33;;;;;;;49.15;11.00;;;6.70;99.90;;;;;;5015876;28;20043;-65
2021/04/09 00:08:59;;;;;;;38.65;8.38;;;6.70;99.90;;;;;;5017213;28;20037;-65
2021/04/09 00:11:25;;;;;;;45.70;8.38;;;6.70;99.90;;;;;;5017949;28;20412;-64
2021/04/09 00:13:51;;;;;;;40.22;7.68;;;6.70;99.90;;;;;;5010075;28;20451;-64
2021/04/09 00:16:17;;;;;;;40.17;7.38;;;6.60;99.90;;;;;;5013387;28;20034;-64
2021/04/09 00:18:42;;;;;;;35.65;8.27;;;6.60;99.90;;;;;;5015624;28;20447;-65
2021/04/09 00:21:08;;;;;;;38.03;8.18;;;6.60;99.90;;;;;;5013911;28;20405;-66
2021/04/09 00:23:34;;;;;;;33.80;7.30;;;6.60;99.90;;;;;;5013345;28;20034;-65
2021/04/09 00:26:01;;;;;;;29.05;7.40;;;6.70;99.90;;;;;;5013820;28;20614;-66
2021/04/09 00:28:26;;;;;;;48.92;8.18;;;6.70;99.90;;;;;;5017083;28;20032;-65
2021/04/09 00:30:52;;;;;;;44.97;8.77;;;6.60;99.90;;;;;;5013261;28;20033;-65
2021/04/09 00:33:18;;;;;;;42.28;9.98;;;6.70;99.90;;;;;;5016624;28;20306;-69
2021/04/09 00:35:45;;;;;;;48.47;9.50;;;6.70;99.90;;;;;;5012370;28;20440;-65
2021/04/09 00:38:12;;;;;;;46.15;8.50;;;6.70;99.90;;;;;;5014517;28;20033;-65
2021/04/09 00:40:39;;;;;;;39.15;7.88;;;6.70;99.90;;;;;;5015095;28;20400;-65
2021/04/09 00:43:07;;;;;;;40.30;8.52;;;6.70;99.90;;;;;;5017890;28;20025;-65
2021/04/09 00:45:37;;;;;;;38.60;7.53;;;6.80;99.90;;;;;;5014712;28;20030;-65
2021/04/09 00:48:03;;;;;;;;;;;6.70;99.90;;;;;;5014334;28;20107;-65
2021/04/09 00:50:29;;;;;;;36.08;7.60;;;6.70;99.90;;;;;;5012198;28;20502;-64
2021/04/09 00:52:56;;;;;;;43.63;8.20;;;6.70;99.90;;;;;;5011209;28;20259;-64
2021/04/09 00:55:22;;;;;;;39.13;10.25;;;6.70;99.90;;;;;;5012875;28;20143;-64
2021/04/09 00:57:50;;;;;;;52.13;10.05;;;6.70;99.90;;;;;;5016229;28;20536;-66
2021/04/09 01:00:17;;;;;;;45.53;9.48;;;6.70;99.90;;;;;;5014457;28;20040;-65
2021/04/09 01:02:43;;;;;;;46.55;8.00;;;6.70;99.90;;;;;;5015749;28;20040;-64
2021/04/09 01:05:12;;;;;;;60.38;8.88;;;6.70;99.90;;;;;;5012931;28;20190;-64
2021/04/09 01:07:41;;;;;;;37.70;9.10;;;6.70;99.90;;;;;;5011471;28;20374;-64
2021/04/09 01:10:09;;;;;;;45.90;9.60;;;6.70;99.90;;;;;;5016600;28;20029;-64
2021/04/09 01:12:35;;;;;;;42.63;9.35;;;6.70;99.90;;;;;;5015043;28;20128;-65
2021/04/09 01:15:01;;;;;;;45.67;7.70;;;6.70;99.90;;;;;;5011877;28;20041;-65
2021/04/09 01:17:39;;;;;;;42.40;8.23;;;6.70;99.90;;;;;;5009631;28;20029;-65
2021/04/09 01:20:14;;;;;;;38.10;7.35;;;6.70;99.90;;;;;;5014633;28;20057;-65
2021/04/09 01:23:02;;;;;;;37.25;8.48;;;6.70;99.90;;;;;;5014272;28;20025;-64
2021/04/09 01:25:49;;;;;;;38.92;7.88;;;6.70;99.90;;;;;;5017722;28;20667;-65
2021/04/09 01:28:20;;;;;;;40.72;8.00;;;6.70;99.90;;;;;;5013438;28;20511;-64
2021/04/09 01:31:15;;;;;;;53.78;8.82;;;6.70;99.90;;;;;;5016221;28;20033;-65
2021/04/09 01:33:45;;;;;;;51.58;9.15;;;6.70;99.90;;;;;;5012019;28;20410;-64
2021/04/09 01:36:17;;;;;;;36.20;7.75;;;6.70;99.90;;;;;;5011332;28;20511;-64
2021/04/09 01:38:58;;;;;;;44.35;7.95;;;6.60;99.90;;;;;;5014291;28;20038;-65
2021/04/09 01:41:26;;;;;;;50.78;8.73;;;6.70;99.90;;;;;;5014902;28;20030;-65
2021/04/09 01:43:55;;;;;;;35.17;7.60;;;6.60;99.90;;;;;;5015189;28;20033;-65
2021/04/09 01:46:22;;;;;;;46.10;7.95;;;6.60;99.90;;;;;;5011648;28;20045;-65
2021/04/09 01:48:49;;;;;;;33.47;7.75;;;6.60;99.90;;;;;;5011874;28;20030;-65
2021/04/09 01:51:16;;;;;;;44.40;8.55;;;6.60;99.90;;;;;;5011428;28;20033;-65
2021/04/09 01:53:45;;;;;;;39.10;9.75;;;6.60;99.90;;;;;;5015097;28;20092;-66
2021/04/09 01:56:13;;;;;;;42.35;8.77;;;6.50;99.90;;;;;;5013326;28;20099;-65
2021/04/09 01:58:40;;;;;;;42.85;9.77;;;6.60;99.90;;;;;;5018975;28;20025;-67
2021/04/09 02:01:12;;;;;;;41.35;8.43;;;6.60;99.90;;;;;;5017203;28;20034;-66
2021/04/09 02:03:39;;;;;;;42.65;9.10;;;6.60;99.90;;;;;;5020425;28;20025;-66
2021/04/09 02:06:07;;;;;;;45.97;7.93;;;6.50;99.90;;;;;;5018009;28;20057;-66
2021/04/09 02:08:36;;;;;;;36.55;6.35;;;6.60;99.90;;;;;;5019103;28;20746;-66
2021/04/09 02:11:03;;;;;;;39.05;7.82;;;6.60;99.90;;;;;;5017380;28;20396;-66
2021/04/09 02:13:30;;;;;;;45.25;6.95;;;6.60;99.90;;;;;;5015342;28;20067;-66
2021/04/09 02:15:57;;;;;;;41.35;7.00;;;6.60;99.90;;;;;;5016465;28;20087;-66
2021/04/09 02:18:28;;;;;;;36.42;7.47;;;6.60;99.90;;;;;;5018285;28;20111;-66
2021/04/09 02:20:59;;;;;;;44.78;7.70;;;6.60;99.90;;;;;;5018000;28;20046;-66
2021/04/09 02:23:25;;;;;;;51.22;7.97;;;6.60;99.90;;;;;;5014622;28;20108;-66
2021/04/09 02:25:54;;;;;;;42.88;7.63;;;6.60;99.90;;;;;;5015780;28;20033;-66
2021/04/09 02:28:20;;;;;;;47.33;7.43;;;6.60;99.90;;;;;;5018674;28;20120;-66
2021/04/09 02:31:02;;;;;;;36.08;5.82;;;6.70;99.90;;;;;;5017831;28;20037;-67
2021/04/09 02:33:32;;;;;;;38.20;6.72;;;6.70;99.90;;;;;;5015994;28;20025;-66
2021/04/09 02:35:58;;;;;;;34.47;6.03;;;6.60;99.90;;;;;;5018008;28;20140;-66
2021/04/09 02:38:28;;;;;;;46.42;7.07;;;6.60;99.90;;;;;;5017544;28;20774;-66
2021/04/09 02:40:56;;;;;;;;;;;6.60;99.90;;;;;;5015781;28;20560;-66
2021/04/09 02:43:22;;;;;;;43.47;6.80;;;6.60;99.90;;;;;;5017168;28;19944;-67
2021/04/09 02:45:48;;;;;;;49.38;9.73;;;6.70;99.90;;;;;;5018316;28;20033;-66
2021/04/09 02:48:14;;;;;;;30.70;6.15;;;6.60;99.90;;;;;;5015349;28;20155;-66
2021/04/09 02:50:44;;;;;;;25.38;5.75;;;6.60;99.90;;;;;;5016495;28;20022;-66
2021/04/09 02:53:15;;;;;;;35.92;7.10;;;6.70;99.90;;;;;;5016228;28;20026;-66
2021/04/09 02:55:46;;;;;;;36.22;6.72;;;6.70;99.90;;;;;;5017356;28;20096;-66
2021/04/09 02:58:14;;;;;;;26.00;5.55;;;6.60;99.90;;;;;;5013656;28;20079;-66
2021/04/09 03:00:48;;;;;;;34.65;6.00;;;6.60;99.90;;;;;;5013598;28;20438;-67
2021/04/09 03:03:16;;;;;;;33.47;6.70;;;6.60;99.90;;;;;;5018145;28;20033;-66
2021/04/09 03:05:43;;;;;;;27.65;6.43;;;6.60;99.90;;;;;;5016447;28;20067;-67
2021/04/09 03:08:10;;;;;;;32.47;7.38;;;6.70;99.90;;;;;;5017471;28;20112;-67
2021/04/09 03:10:36;;;;;;;33.22;6.18;;;6.70;99.90;;;;;;5016374;28;20556;-67
2021/04/09 03:13:04;;;;;;;26.50;5.85;;;6.70;99.90;;;;;;5015931;28;20052;-67
2021/04/09 03:15:39;;;;;;;35.42;6.80;;;6.70;99.90;;;;;;5016006;28;20083;-67
2021/04/09 03:18:10;;;;;;;41.03;7.28;;;6.60;99.90;;;;;;5014950;28;20072;-67
2021/04/09 03:20:37;;;;;;;32.45;6.57;;;6.60;99.90;;;;;;5015942;28;20073;-66
2021/04/09 03:23:04;;;;;;;48.28;8.00;;;6.60;99.90;;;;;;5016118;28;20040;-66
2021/04/09 03:25:31;;;;;;;40.65;6.90;;;6.60;99.90;;;;;;5011715;28;20033;-67
2021/04/09 03:27:56;;;;;;;33.67;6.55;;;6.60;99.90;;;;;;5014081;28;20672;-68
2021/04/09 03:30:24;;;;;;;32.22;6.55;;;6.50;99.90;;;;;;5010777;28;20025;-67
2021/04/09 03:32:50;;;;;;;38.63;7.63;;;6.50;99.90;;;;;;5016081;28;20049;-67
2021/04/09 03:35:17;;;;;;;36.58;7.47;;;6.50;99.90;;;;;;5015479;28;20121;-67
2021/04/09 03:37:43;;;;;;;48.22;7.32;;;6.50;99.90;;;;;;5012671;28;21015;-67
2021/04/09 03:40:10;;;;;;;41.28;6.47;;;6.50;99.90;;;;;;5014336;28;20986;-67
2021/04/09 03:42:36;;;;;;;32.15;6.97;;;6.50;99.90;;;;;;5013428;28;20456;-67
2021/04/09 03:45:04;;;;;;;28.60;6.15;;;6.50;99.90;;;;;;5011689;28;20018;-67
2021/04/09 03:47:30;;;;;;;36.80;6.55;;;6.50;99.90;;;;;;5016193;28;20033;-67
2021/04/09 03:49:56;;;;;;;40.15;6.43;;;6.50;99.90;;;;;;5014572;28;20087;-67
2021/04/09 03:52:22;;;;;;;44.38;7.38;;;6.40;99.90;;;;;;5013561;28;20531;-67
2021/04/09 03:54:48;;;;;;;36.28;6.80;;;6.50;99.90;;;;;;5010349;28;20682;-67
2021/04/09 03:57:14;;;;;;;38.20;7.78;;;6.40;99.90;;;;;;5014424;28;20053;-67
2021/04/09 03:59:40;;;;;;;38.20;7.50;;;6.50;99.90;;;;;;5008183;28;20489;-67
2021/04/09 04:02:06;;;;;;;44.75;8.05;;;6.50;99.90;;;;;;5009958;28;20040;-66
2021/04/09 04:04:32;;;;;;;41.25;7.90;;;6.50;99.90;;;;;;5014814;28;20356;-66
2021/04/09 04:06:58;;;;;;;37.50;6.25;;;6.50;99.90;;;;;;5015782;28;20036;-66
2021/04/09 04:09:24;;;;;;;45.15;8.32;;;6.50;99.90;;;;;;5015168;28;20579;-66
2021/04/09 04:11:50;;;;;;;39.38;7.55;;;6.50;99.90;;;;;;5009350;28;20029;-66
2021/04/09 04:14:16;;;;;;;36.10;7.20;;;6.50;99.90;;;;;;5004555;28;20515;-66
2021/04/09 04:16:42;;;;;;;39.42;6.85;;;6.50;99.90;;;;;;5003383;28;20048;-63
2021/04/09 04:19:08;;;;;;;35.00;6.55;;;6.50;99.90;;;;;;5005874;28;20520;-66
2021/04/09 04:21:34;;;;;;;34.38;6.25;;;6.50;99.90;;;;;;5011661;28;20029;-66
2021/04/09 04:24:00;;;;;;;37.55;6.70;;;6.50;99.90;;;;;;5015629;28;20099;-67
2021/04/09 04:26:26;;;;;;;37.95;6.63;;;6.50;99.90;;;;;;5015495;28;20034;-66
2021/04/09 04:28:52;;;;;;;44.50;6.38;;;6.50;99.90;;;;;;5013923;28;21082;-67
2021/04/09 04:31:18;;;;;;;31.48;6.63;;;6.50;99.90;;;;;;5010062;28;20571;-67
2021/04/09 04:33:44;;;;;;;46.63;8.77;;;6.50;99.90;;;;;;5015000;28;20042;-67
2021/04/09 04:36:09;;;;;;;49.72;9.38;;;6.50;99.90;;;;;;5015588;28;20044;-67
2021/04/09 04:38:36;;;;;;;47.10;8.43;;;6.50;99.90;;;;;;5012721;28;20049;-67
2021/04/09 04:41:02;;;;;;;43.30;7.45;;;6.50;99.90;;;;;;5014809;28;20474;-67
2021/04/09 04:43:28;;;;;;;40.25;7.18;;;6.50;99.90;;;;;;5016088;28;20036;-67
2021/04/09 04:45:53;;;;;;;35.50;6.43;;;6.50;99.90;;;;;;5010621;28;20037;-67
2021/04/09 04:48:19;;;;;;;37.55;6.28;;;6.50;99.90;;;;;;5015214;28;20452;-66
2021/04/09 04:50:45;;;;;;;32.22;6.30;;;6.50;99.90;;;;;;5014480;28;20493;-67
2021/04/09 04:53:11;;;;;;;30.42;6.82;;;6.50;99.90;;;;;;5009468;28;20516;-67
2021/04/09 04:55:37;;;;;;;29.02;5.38;;;6.40;99.90;;;;;;5014382;28;20037;-66
2021/04/09 04:58:03;;;;;;;25.52;5.68;;;6.40;99.90;;;;;;5010419;28;20025;-66
2021/04/09 05:00:29;;;;;;;40.17;6.18;;;6.40;99.90;;;;;;5013549;28;20105;-66
2021/04/09 05:02:55;;;;;;;34.17;5.95;;;6.40;99.90;;;;;;5012429;28;20039;-66
2021/04/09 05:05:21;;;;;;;32.80;6.15;;;6.40;99.90;;;;;;5011833;28;20032;-66
2021/04/09 05:07:47;;;;;;;32.38;5.82;;;6.40;99.90;;;;;;5015261;28;20393;-67
2021/04/09 05:10:13;;;;;;;34.75;5.55;;;6.40;99.90;;;;;;5014033;28;20393;-66
2021/04/09 05:12:39;;;;;;;41.88;7.35;;;6.40;99.90;;;;;;5009768;28;20048;-66
2021/04/09 05:15:07;;;;;;;37.67;4.90;;;6.40;99.90;;;;;;5010129;28;20299;-66
2021/04/09 05:21:14;;;;;;;45.40;8.55;;;6.30;99.90;;;;;;4975128;28;20106;-69
2021/04/09 05:23:40;;;;;;;44.20;6.90;;;6.40;99.90;;;;;;5012902;28;20041;-66
2021/04/09 05:26:06;;;;;;;28.77;5.25;;;6.40;99.90;;;;;;5013371;28;20096;-65
2021/04/09 05:28:32;;;;;;;26.30;4.97;;;6.30;99.90;;;;;;5010689;28;20029;-66
2021/04/09 05:30:58;;;;;;;52.05;7.35;;;6.40;99.90;;;;;;5005763;28;20033;-66
2021/04/09 05:33:24;;;;;;;39.15;7.28;;;6.30;99.90;;;;;;5018084;28;20033;-66
2021/04/09 05:35:50;;;;;;;31.38;5.65;;;6.30;99.90;;;;;;5017891;28;20760;-66
2021/04/09 05:38:16;;;;;;;32.33;5.55;;;6.30;99.90;;;;;;5016613;28;20352;-66
2021/04/09 05:40:42;;;;;;;26.77;4.40;;;6.30;99.90;;;;;;5017631;28;20545;-65
2021/04/09 05:43:08;;;;;;;26.42;6.00;;;6.30;99.90;;;;;;5015319;28;20107;-67
2021/04/09 05:45:34;;;;;;;22.10;4.82;;;6.30;99.90;;;;;;5015116;28;20547;-66
2021/04/09 05:48:05;;;;;;;29.85;5.85;;;6.30;99.90;;;;;;5018475;28;20096;-66
2021/04/09 05:50:31;;;;;;;32.85;5.80;;;6.30;99.90;;;;;;5020470;28;20430;-66
2021/04/09 05:52:58;;;;;;;26.95;6.55;;;6.30;99.90;;;;;;5018868;28;20330;-66
2021/04/09 05:55:24;;;;;;;36.13;7.00;;;6.30;99.90;;;;;;5020283;28;20037;-65
2021/04/09 05:57:50;;;;;;;28.55;6.90;;;6.40;99.90;;;;;;5020723;28;20092;-66
2021/04/09 06:00:16;;;;;;;32.88;7.25;;;6.30;99.90;;;;;;5020211;28;20037;-67
2021/04/09 06:02:42;;;;;;;27.95;5.80;;;6.40;99.90;;;;;;5015068;28;20124;-66
2021/04/09 06:05:09;;;;;;;26.40;5.38;;;6.40;99.90;;;;;;5019300;28;20026;-66
2021/04/09 06:07:35;;;;;;;34.05;6.60;;;6.40;99.90;;;;;;5015844;28;20589;-66
2021/04/09 06:10:01;;;;;;;39.92;7.43;;;6.30;99.90;;;;;;5017300;28;20562;-65
2021/04/09 06:12:27;;;;;;;34.85;5.20;;;6.30;99.90;;;;;;5017435;28;20555;-66
2021/04/09 06:14:52;;;;;;;30.80;6.63;;;6.30;99.90;;;;;;5018713;28;20083;-66
2021/04/09 06:17:19;;;;;;;41.60;8.02;;;6.40;99.90;;;;;;5019752;28;20479;-66
2021/04/09 06:19:47;;;;;;;27.90;5.07;;;6.40;99.90;;;;;;5019088;28;20144;-66
2021/04/09 06:22:15;;;;;;;25.27;5.70;;;6.40;99.90;;;;;;5017755;28;20030;-66
2021/04/09 06:24:41;;;;;;;37.17;5.20;;;6.40;99.90;;;;;;5019790;28;20025;-66
2021/04/09 06:27:09;;;;;;;41.53;5.70;;;6.50;99.90;;;;;;5019747;28;20811;-66
2021/04/09 06:29:36;;;;;;;34.72;5.93;;;6.50;99.90;;;;;;5018565;28;20136;-66
2021/04/09 06:32:02;;;;;;;30.35;5.38;;;6.50;99.90;;;;;;5017969;28;20030;-66
2021/04/09 06:34:28;;;;;;;28.48;6.20;;;6.50;99.90;;;;;;5018654;28;20032;-66
2021/04/09 06:36:54;;;;;;;34.28;6.30;;;6.50;99.90;;;;;;5019851;28;20053;-66
2021/04/09 06:39:20;;;;;;;48.45;8.35;;;6.50;99.90;;;;;;5017399;28;20473;-66
2021/04/09 06:41:46;;;;;;;24.83;5.35;;;6.60;99.90;;;;;;5019574;28;20029;-66
2021/04/09 06:44:12;;;;;;;43.25;8.25;;;6.60;99.90;;;;;;5017860;28;20507;-66
2021/04/09 06:46:39;;;;;;;36.97;8.55;;;6.60;99.90;;;;;;5018921;28;20531;-65
2021/04/09 06:49:06;;;;;;;38.67;8.32;;;6.70;99.90;;;;;;5018856;28;20033;-66
2021/04/09 06:51:34;;;;;;;37.05;6.80;;;6.80;99.90;;;;;;5016423;28;20037;-66
2021/04/09 06:54:01;;;;;;;39.40;9.10;;;6.70;99.90;;;;;;5018665;28;20029;-66
2021/04/09 06:56:29;;;;;;;39.60;6.55;;;6.70;99.90;;;;;;5018673;28;20041;-66
2021/04/09 06:58:56;;;;;;;41.70;7.78;;;6.60;99.90;;;;;;5019223;28;20536;-66
2021/04/09 07:01:24;;;;;;;30.45;5.45;;;6.50;99.90;;;;;;5015934;28;20037;-66
2021/04/09 07:03:54;;;;;;;39.72;6.40;;;6.40;99.90;;;;;;5012275;28;20649;-66
2021/04/09 07:06:20;;;;;;;36.88;5.65;;;6.30;99.90;;;;;;5015987;28;20033;-66
2021/04/09 07:08:46;;;;;;;22.58;4.55;;;6.50;99.90;;;;;;5019336;28;20037;-66
2021/04/09 07:11:12;;;;;;;20.70;4.07;;;6.70;99.90;;;;;;5019175;28;20037;-66
2021/04/09 07:13:51;;;;;;;22.23;4.00;;;6.90;99.90;;;;;;5017008;28;20080;-68
2021/04/09 07:16:17;;;;;;;24.77;3.80;;;7.10;99.90;;;;;;5018033;28;20625;-66
2021/04/09 07:18:54;;;;;;;22.65;3.60;;;7.30;99.90;;;;;;5018840;28;20488;-67
2021/04/09 07:21:29;;;;;;;20.80;3.88;;;7.50;99.90;;;;;;5019780;28;20057;-66
2021/04/09 07:24:12;;;;;;;20.70;3.55;;;7.70;99.90;;;;;;5019188;28;20033;-66
2021/04/09 07:26:44;;;;;;;24.92;4.43;;;7.80;99.90;;;;;;5017790;28;20025;-68
2021/04/09 07:29:32;;;;;;;16.77;3.35;;;7.90;99.90;;;;;;5019327;28;20034;-68
2021/04/09 07:31:58;;;;;;;19.17;3.65;;;8.10;99.90;;;;;;5017445;28;20025;-67
2021/04/09 07:34:25;;;;;;;27.55;4.05;;;8.20;99.90;;;;;;5017247;28;20045;-68
2021/04/09 07:36:56;;;;;;;20.90;4.47;;;8.30;99.90;;;;;;5016292;28;20083;-66
2021/04/09 07:39:35;;;;;;;18.20;3.70;;;8.40;99.90;;;;;;5017536;28;20040;-66
2021/04/09 07:42:08;;;;;;;26.63;4.18;;;8.60;99.90;;;;;;5016112;28;20024;-65
2021/04/09 07:44:37;;;;;;;19.60;3.83;;;8.70;99.90;;;;;;5018080;28;20033;-67
2021/04/09 07:47:13;;;;;;;17.42;3.35;;;8.70;99.90;;;;;;5015460;28;20412;-66
2021/04/09 07:49:39;;;;;;;35.30;4.78;;;8.70;99.90;;;;;;5016707;28;20064;-66
2021/04/09 07:52:15;;;;;;;17.42;3.60;;;8.80;99.90;;;;;;5018556;28;20541;-66
2021/04/09 07:54:42;;;;;;;24.17;5.05;;;8.80;99.90;;;;;;5015831;28;20042;-68
2021/04/09 07:57:08;;;;;;;22.55;4.18;;;8.60;99.90;;;;;;5016071;28;20034;-67
2021/04/09 07:59:43;;;;;;;25.55;4.90;;;8.70;99.90;;;;;;5017874;28;20029;-66
2021/04/09 08:02:09;;;;;;;24.77;4.32;;;8.70;99.90;;;;;;5016604;28;20084;-66
2021/04/09 08:04:39;;;;;;;29.58;5.07;;;8.70;99.90;;;;;;5014290;28;20033;-66
2021/04/09 08:07:05;;;;;;;;;;;8.80;99.90;;;;;;5016091;28;20564;-67
2021/04/09 08:09:50;;;;;;;21.55;3.72;;;8.70;99.90;;;;;;5015079;28;19920;-67
2021/04/09 08:12:29;;;;;;;17.95;2.75;;;8.80;99.90;;;;;;5018064;28;20053;-66
2021/04/09 08:14:56;;;;;;;22.50;3.80;;;8.80;99.90;;;;;;5017831;28;20045;-66
2021/04/09 08:17:23;;;;;;;13.80;3.03;;;8.80;99.90;;;;;;5017133;28;20486;-67
2021/04/09 08:19:54;;;;;;;17.20;3.20;;;8.90;99.90;;;;;;5010765;28;20037;-67
2021/04/09 08:22:22;;;;;;;19.45;3.35;;;8.80;99.90;;;;;;5016296;28;20068;-66
2021/04/09 08:24:48;;;;;;;20.00;2.95;;;8.80;99.90;;;;;;5017761;28;20397;-67
2021/04/09 08:27:15;;;;;;;19.95;3.03;;;9.10;99.90;;;;;;5015202;28;20030;-68
2021/04/09 08:29:43;;;;;;;19.60;3.75;;;9.30;99.90;;;;;;5016332;28;20037;-67
2021/04/09 08:32:10;;;;;;;27.63;4.13;;;9.60;99.90;;;;;;5016963;28;20034;-67
2021/04/09 08:34:37;;;;;;;17.83;4.18;;;9.90;99.90;;;;;;5016497;28;20061;-67
2021/04/09 08:37:04;;;;;;;16.17;4.07;;;9.70;99.90;;;;;;5015942;28;20059;-66
2021/04/09 08:39:30;;;;;;;23.15;4.10;;;9.50;99.90;;;;;;5014193;28;20112;-67
2021/04/09 08:41:57;;;;;;;12.70;3.00;;;9.70;99.90;;;;;;5015406;28;20064;-67
2021/04/09 08:44:23;;;;;;;19.52;3.47;;;9.40;99.90;;;;;;5016248;28;20033;-67
2021/04/09 08:46:49;;;;;;;24.02;4.68;;;9.40;99.90;;;;;;5017282;28;20036;-67
2021/04/09 08:49:17;;;;;;;14.77;2.75;;;9.20;99.90;;;;;;5016573;28;20025;-66
2021/04/09 08:51:45;;;;;;;24.00;3.72;;;9.30;99.90;;;;;;5016259;28;20029;-67
2021/04/09 08:54:18;;;;;;;18.98;3.53;;;9.30;99.90;;;;;;5017472;28;20093;-66
2021/04/09 08:56:45;;;;;;;21.20;3.30;;;9.40;99.90;;;;;;5016098;28;20053;-67
2021/04/09 08:59:11;;;;;;;26.27;5.43;;;9.60;99.90;;;;;;5015604;28;20120;-67
2021/04/09 09:01:37;;;;;;;16.02;3.45;;;9.90;99.90;;;;;;5013814;28;20060;-67
2021/04/09 09:04:21;;;;;;;13.25;2.33;;;10.20;99.90;;;;;;5014829;28;20464;-67
2021/04/09 09:06:48;;;;;;;17.95;3.25;;;10.60;99.90;;;;;;5014289;28;20048;-67
2021/04/09 09:09:35;;;;;;;18.95;3.45;;;10.50;99.90;;;;;;5016311;28;20144;-67
2021/04/09 09:12:03;;;;;;;22.45;3.20;;;10.30;99.90;;;;;;5016385;28;20036;-67
2021/04/09 09:14:38;;;;;;;42.75;5.50;;;9.90;99.90;;;;;;5015874;28;20457;-67
2021/04/09 09:17:19;;;;;;;17.35;3.55;;;10.20;99.90;;;;;;5015784;28;20558;-68
2021/04/09 09:19:50;;;;;;;14.25;3.08;;;10.10;99.90;;;;;;5016510;28;20484;-67
2021/04/09 09:22:20;;;;;;;16.73;3.13;;;9.70;99.90;;;;;;5016169;28;20112;-68
2021/04/09 09:25:06;;;;;;;14.73;3.08;;;9.30;99.90;;;;;;5015762;28;20329;-68
2021/04/09 09:27:52;;;;;;;17.83;3.38;;;9.20;99.90;;;;;;5014316;28;20036;-67
2021/04/09 09:30:36;;;;;;;17.15;2.83;;;9.00;99.90;;;;;;5015700;28;20131;-72
2021/04/09 09:33:23;;;;;;;14.25;2.85;;;8.50;99.90;;;;;;5015806;28;20112;-67
2021/04/09 09:35:58;;;;;;;16.45;3.10;;;8.20;99.90;;;;;;5017549;28;20156;-67
2021/04/09 09:38:49;;;;;;;21.88;3.75;;;8.40;99.90;;;;;;5030939;28;20373;-67
2021/04/09 09:41:38;;;;;;;21.33;3.05;;;9.00;99.90;;;;;;5015787;28;20583;-68
2021/04/09 09:44:33;;;;;;;15.60;3.17;;;9.50;99.90;;;;;;5015791;28;20424;-68
2021/04/09 09:47:17;;;;;;;20.08;4.00;;;10.10;99.90;;;;;;5015471;28;20481;-68
2021/04/09 09:50:12;;;;;;;15.68;3.47;;;10.20;99.90;;;;;;5014691;28;20033;-68
2021/04/09 09:52:44;;;;;;;13.52;3.30;;;10.10;99.90;;;;;;5019260;28;20037;-68
2021/04/09 09:55:17;;;;;;;14.45;3.40;;;9.80;99.90;;;;;;5014283;28;20037;-68
2021/04/09 09:57:50;;;;;;;22.08;4.80;;;9.90;99.90;;;;;;5015722;28;20107;-68
2021/04/09 10:00:38;;;;;;;14.25;2.88;;;10.00;99.90;;;;;;5016511;28;20045;-68
2021/04/09 10:03:29;;;;;;;17.63;3.25;;;10.10;99.90;;;;;;5014052;28;20041;-69
2021/04/09 10:06:02;;;;;;;17.00;3.10;;;10.20;99.90;;;;;;5013167;28;20040;-68
2021/04/09 10:08:35;;;;;;;17.50;3.10;;;10.50;99.90;;;;;;5015192;28;20555;-69
2021/04/09 10:11:06;;;;;;;16.85;3.45;;;10.40;99.90;;;;;;5015998;28;20045;-68
2021/04/09 10:13:39;;;;;;;16.98;3.20;;;10.40;99.90;;;;;;5015020;28;20034;-68
2021/04/09 10:16:11;;;;;;;13.68;3.35;;;10.40;99.90;;;;;;5012121;28;20405;-68
2021/04/09 10:18:39;;;;;;;17.63;3.10;;;10.30;99.90;;;;;;5017941;28;20017;-69
2021/04/09 10:21:14;;;;;;;17.05;3.70;;;10.60;99.90;;;;;;5017973;28;20456;-69
2021/04/09 10:23:41;;;;;;;13.57;2.17;;;11.00;99.90;;;;;;5020432;28;20036;-69
2021/04/09 10:26:07;;;;;;;20.45;3.05;;;11.20;99.90;;;;;;5019430;28;20388;-69
2021/04/09 10:28:37;;;;;;;16.33;2.35;;;11.10;99.90;;;;;;5016476;28;20472;-69
2021/04/09 10:31:23;;;;;;;16.73;2.67;;;11.40;99.90;;;;;;5019409;28;20037;-69
2021/04/09 10:33:55;;;;;;;15.32;2.72;;;11.30;99.90;;;;;;5019326;28;20548;-69
2021/04/09 10:36:27;;;;;;;16.48;3.10;;;11.20;99.90;;;;;;5035112;28;20947;-69
2021/04/09 10:39:10;;;;;;;20.02;3.92;;;11.50;99.90;;;;;;5017092;28;20392;-69
2021/04/09 10:41:42;;;;;;;14.88;2.72;;;11.50;99.90;;;;;;5018567;28;20029;-69
2021/04/09 10:44:13;;;;;;;15.65;3.20;;;11.50;99.90;;;;;;5019333;28;20140;-69
2021/04/09 10:46:41;;;;;;;19.58;3.33;;;11.30;99.90;;;;;;5016968;28;20025;-69
2021/04/09 10:49:10;;;;;;;18.95;3.72;;;11.10;99.90;;;;;;5017175;28;20026;-69
2021/04/09 10:51:41;;;;;;;24.02;3.90;;;11.10;99.90;;;;;;5018998;28;20456;-69
2021/04/09 10:54:08;;;;;;;20.58;4.03;;;11.60;99.90;;;;;;5016948;28;20025;-69
2021/04/09 10:56:35;;;;;;;16.23;2.92;;;11.80;99.90;;;;;;5017459;28;20072;-69
2021/04/09 10:59:01;;;;;;;20.88;3.88;;;11.90;99.90;;;;;;5017387;28;20542;-69
2021/04/09 11:01:27;;;;;;;34.85;3.63;;;12.00;99.90;;;;;;5017384;28;20033;-69
2021/04/09 11:03:54;;;;;;;17.80;3.67;;;12.00;99.90;;;;;;5011144;28;20069;-69
2021/04/09 11:06:21;;;;;;;19.23;4.28;;;11.80;99.90;;;;;;5017162;28;20029;-69
2021/04/09 11:09:06;;;;;;;17.63;4.07;;;11.40;99.90;;;;;;5018005;28;20022;-69
2021/04/09 11:11:36;;;;;;;20.33;3.33;;;11.20;99.90;;;;;;5016425;28;20045;-69
2021/04/09 11:14:04;;;;;;;13.68;4.05;;;11.50;99.90;;;;;;5016527;28;20029;-69
2021/04/09 11:16:55;;;;;;;20.33;4.35;;;11.70;99.90;;;;;;5017299;28;20080;-69
2021/04/09 11:19:31;;;;;;;17.85;3.80;;;11.80;99.90;;;;;;5017086;28;20389;-69
2021/04/09 11:21:57;;;;;;;20.02;3.20;;;12.00;99.90;;;;;;5016838;28;20052;-69
2021/04/09 11:24:33;;;;;;;14.82;3.13;;;11.70;99.90;;;;;;5017029;28;20022;-68
2021/04/09 11:27:16;;;;;;;16.45;2.75;;;11.20;99.90;;;;;;5017278;28;20034;-68
2021/04/09 11:29:42;;;;;;;18.17;3.28;;;10.80;99.90;;;;;;5015559;28;20515;-68
2021/04/09 11:32:14;;;;;;;7.85;2.95;;;10.10;99.90;;;;;;5018753;28;20148;-68
2021/04/09 11:34:42;;;;;;;12.20;2.17;;;9.80;99.90;;;;;;5018009;28;20040;-69
2021/04/09 11:37:13;;;;;;;15.07;2.88;;;9.80;99.90;;;;;;5016149;28;20099;-68
2021/04/09 11:39:56;;;;;;;16.80;3.47;;;9.70;99.90;;;;;;5016017;28;20622;-68
2021/04/09 11:42:43;;;;;;;14.68;3.58;;;9.20;99.90;;;;;;5018309;28;20116;-68
2021/04/09 11:45:12;;;;;;;15.52;3.30;;;9.00;99.90;;;;;;5017691;28;20442;-68
2021/04/09 11:47:40;;;;;;;15.75;3.25;;;9.60;99.90;;;;;;5017540;28;20138;-68
2021/04/09 11:50:23;;;;;;;16.08;2.80;;;10.40;99.90;;;;;;5015395;28;20145;-69
2021/04/09 11:52:52;;;;;;;15.50;2.90;;;10.90;99.90;;;;;;5015558;28;20122;-69
2021/04/09 11:55:20;;;;;;;15.85;3.13;;;11.20;99.90;;;;;;5016461;28;20037;-68
2021/04/09 11:57:46;;;;;;;17.67;2.80;;;11.10;99.90;;;;;;5017026;28;20467;-68
2021/04/09 12:00:25;;;;;;;12.70;1.88;;;11.30;99.90;;;;;;5018424;28;20116;-68
2021/04/09 12:03:02;;;;;;;17.60;2.90;;;11.10;99.90;;;;;;5016131;28;20530;-68
2021/04/09 12:05:33;;;;;;;8.27;2.13;;;10.50;99.90;;;;;;5014354;28;20055;-68
2021/04/09 12:08:00;;;;;;;14.10;2.63;;;9.90;99.90;;;;;;5016235;28;20033;-68
2021/04/09 12:10:28;;;;;;;13.63;2.00;;;9.50;99.90;;;;;;5017140;28;20548;-68
2021/04/09 12:12:54;;;;;;;13.07;2.53;;;9.60;99.90;;;;;;5016805;28;20584;-69
2021/04/09 12:15:22;;;;;;;16.45;2.15;;;10.20;99.90;;;;;;5016230;28;20029;-68
2021/04/09 12:17:49;;;;;;;12.35;2.53;;;10.80;99.90;;;;;;5017943;28;20112;-68
2021/04/09 12:20:17;;;;;;;17.95;3.05;;;11.00;99.90;;;;;;5015068;28;20127;-69
2021/04/09 12:22:44;;;;;;;14.43;3.03;;;11.40;99.90;;;;;;5018135;28;20045;-68
2021/04/09 12:25:12;;;;;;;16.77;2.85;;;11.40;99.90;;;;;;5017390;28;20488;-68
2021/04/09 12:27:39;;;;;;;12.95;3.50;;;11.30;99.90;;;;;;5015945;28;20065;-68
2021/04/09 12:30:07;;;;;;;24.50;3.70;;;11.00;99.90;;;;;;5013326;28;20040;-68
2021/04/09 12:32:33;;;;;;;22.15;3.50;;;11.00;99.90;;;;;;5016987;28;20455;-68
2021/04/09 12:34:59;;;;;;;12.65;2.97;;;11.20;99.90;;;;;;5014344;28;20045;-67
2021/04/09 12:37:25;;;;;;;17.23;3.47;;;11.30;99.90;;;;;;5015613;28;20029;-68
2021/04/09 12:39:51;;;;;;;17.42;3.58;;;11.10;99.90;;;;;;5016268;28;20037;-68
2021/04/09 12:42:18;;;;;;;12.20;3.38;;;10.60;99.90;;;;;;5016500;28;20389;-68
2021/04/09 12:44:44;;;;;;;16.75;3.30;;;10.70;99.90;;;;;;5017215;28;20040;-68
2021/04/09 12:47:10;;;;;;;16.10;3.33;;;10.80;99.90;;;;;;5017705;28;20029;-68
2021/04/09 12:49:36;;;;;;;19.65;5.05;;;11.10;99.90;;;;;;5017604;28;20083;-68
2021/04/09 12:52:04;;;;;;;17.02;3.28;;;11.60;99.90;;;;;;5014122;28;20037;-68
2021/04/09 12:54:30;;;;;;;15.70;3.22;;;11.70;99.90;;;;;;5014354;28;20041;-68
2021/04/09 12:56:57;;;;;;;18.20;3.28;;;11.60;99.90;;;;;;5012657;28;20042;-68
2021/04/09 12:59:23;;;;;;;14.80;3.22;;;11.00;99.90;;;;;;5004007;28;20030;-68
2021/04/09 13:01:49;;;;;;;16.77;3.95;;;10.50;99.90;;;;;;5004971;28;20033;-70